Teaberry, Kentucky
Current Conditions -  °F | °C
As of 7:15 PM on Tuesday 25 Nov 2014 (Local Time) from KPBX Reporting Station
Clear Clear  
Wind Chill: 44°   Ceiling: Unl
Heat Index: 47°   Visibility: 10mi
Dew Point: 26°   Wind: 7mph
Humidity: 45%   Direction: 360°N
Pressure: 30.08"   Gusts: NA
Location:  37.43°N, 82.64°W
Report Text: KPBX 260015Z AUTO 36006KT 10SM CLR 08/M03 A3008 RMK AO2 T00841031
Loading
Personal Weather Stations






























Interactive Weather Map New forecast layout! Learn more

10-Day Weather Forecast

Advertisements
Track Severe Weather on mobile